createdAt,value
2022-07-25T00:01:55.070Z,13.52
2022-07-25T00:04:24.013Z,13.65
2022-07-25T00:06:51.440Z,16.10
2022-07-25T00:09:18.428Z,13.55
2022-07-25T00:11:45.431Z,10.35
2022-07-25T00:14:12.468Z,11.52
2022-07-25T00:16:40.157Z,12.38
2022-07-25T00:19:07.268Z,11.95
2022-07-25T00:21:34.298Z,10.70
2022-07-25T00:24:01.358Z,11.23
2022-07-25T00:26:28.443Z,12.80
2022-07-25T00:28:55.430Z,13.35
2022-07-25T00:31:22.504Z,12.77
2022-07-25T00:33:49.498Z,10.15
2022-07-25T00:36:16.542Z,12.13
2022-07-25T00:38:43.583Z,9.18
2022-07-25T00:41:11.002Z,15.43
2022-07-25T00:43:38.041Z,11.80
2022-07-25T00:46:05.446Z,13.00
2022-07-25T00:48:32.586Z,10.55
2022-07-25T00:51:00.141Z,9.48
2022-07-25T00:53:27.320Z,11.40
2022-07-25T00:55:55.681Z,17.30
2022-07-25T00:58:22.785Z,11.40
2022-07-25T01:00:49.881Z,11.20
2022-07-25T01:03:17.438Z,15.32
2022-07-25T01:05:44.638Z,12.25
2022-07-25T01:08:12.635Z,12.27
2022-07-25T01:10:40.163Z,11.38
2022-07-25T01:13:07.292Z,9.77
2022-07-25T01:15:34.502Z,11.55
2022-07-25T01:18:01.682Z,13.77
2022-07-25T01:20:30.530Z,12.68
2022-07-25T01:22:58.240Z,10.40
2022-07-25T01:25:30.446Z,11.68
2022-07-25T01:27:58.266Z,10.70
2022-07-25T01:30:25.818Z,11.15
2022-07-25T01:32:53.458Z,8.98
2022-07-25T01:35:20.601Z,15.90
2022-07-25T01:37:47.841Z,12.57
2022-07-25T01:40:15.549Z,9.23
2022-07-25T01:42:43.962Z,12.27
2022-07-25T01:45:13.072Z,13.70
2022-07-25T01:47:40.842Z,13.82
2022-07-25T01:50:09.102Z,14.98
2022-07-25T01:52:37.721Z,10.98
2022-07-25T01:55:05.257Z,9.23
2022-07-25T01:57:33.524Z,11.60
2022-07-25T02:00:07.014Z,11.70
2022-07-25T02:02:34.104Z,9.30
2022-07-25T02:05:01.232Z,8.63
2022-07-25T02:07:28.277Z,14.38
2022-07-25T02:09:57.024Z,14.35
2022-07-25T02:12:24.227Z,12.10
2022-07-25T02:14:51.499Z,11.15
2022-07-25T02:17:18.749Z,9.43
2022-07-25T02:19:45.925Z,11.00
2022-07-25T02:22:13.166Z,9.52
2022-07-25T02:24:40.264Z,8.18
2022-07-25T02:27:08.275Z,8.40
2022-07-25T02:29:35.401Z,12.18
2022-07-25T02:32:02.508Z,8.90
2022-07-25T02:34:29.574Z,10.35
2022-07-25T02:36:56.595Z,10.77
2022-07-25T02:39:23.692Z,12.90
2022-07-25T02:41:50.694Z,10.25
2022-07-25T02:44:17.757Z,12.82
2022-07-25T02:46:44.809Z,10.30
2022-07-25T02:49:12.355Z,9.30
2022-07-25T02:51:39.604Z,8.90
2022-07-25T02:54:06.654Z,7.47
2022-07-25T02:56:33.690Z,10.50
2022-07-25T02:59:00.795Z,7.80
2022-07-25T03:01:27.926Z,9.63
2022-07-25T03:03:55.089Z,8.52
2022-07-25T03:06:22.241Z,14.45
2022-07-25T03:08:49.312Z,7.88
2022-07-25T03:11:16.905Z,7.50
2022-07-25T03:13:44.098Z,9.00
2022-07-25T03:16:11.369Z,7.15
2022-07-25T03:18:38.549Z,7.60
2022-07-25T03:21:06.496Z,7.13
2022-07-25T03:23:33.493Z,6.65
2022-07-25T03:26:00.451Z,7.18
2022-07-25T03:28:27.463Z,5.55
2022-07-25T03:30:54.651Z,7.25
2022-07-25T03:33:21.843Z,5.63
2022-07-25T03:35:48.877Z,6.47
2022-07-25T03:38:15.931Z,6.88
2022-07-25T03:40:42.997Z,6.80
2022-07-25T03:43:10.161Z,8.75
2022-07-25T03:45:37.236Z,5.60
2022-07-25T03:48:04.548Z,7.88
2022-07-25T03:50:31.581Z,6.20
2022-07-25T03:52:58.776Z,6.22
2022-07-25T03:55:25.779Z,6.55
2022-07-25T03:57:52.766Z,5.30
2022-07-25T04:00:19.789Z,7.28
2022-07-25T04:02:46.955Z,5.20
2022-07-25T04:05:14.107Z,6.00
2022-07-25T04:07:41.228Z,4.97
2022-07-25T04:10:09.603Z,5.93
2022-07-25T04:12:37.365Z,7.32
2022-07-25T04:15:05.108Z,5.88
2022-07-25T04:17:32.023Z,7.35
2022-07-25T04:19:58.956Z,4.55
2022-07-25T04:22:26.140Z,4.28
2022-07-25T04:24:53.312Z,5.88
2022-07-25T04:27:22.065Z,9.68
2022-07-25T04:29:49.064Z,5.00
2022-07-25T04:32:21.377Z,6.82
2022-07-25T04:34:52.351Z,10.13
2022-07-25T04:37:19.553Z,4.03
2022-07-25T04:39:46.579Z,11.23
2022-07-25T04:42:13.570Z,9.05
2022-07-25T04:44:40.706Z,10.60
2022-07-25T04:47:07.645Z,7.93
2022-07-25T04:49:52.155Z,10.23
2022-07-25T04:52:19.137Z,7.80
2022-07-25T04:54:46.223Z,5.45
2022-07-25T04:57:13.210Z,8.85
2022-07-25T04:59:40.220Z,5.65
2022-07-25T05:02:07.289Z,6.25
2022-07-25T05:04:34.978Z,10.63
2022-07-25T05:07:02.075Z,7.40
2022-07-25T05:09:29.285Z,8.70
2022-07-25T05:11:56.583Z,7.85
2022-07-25T05:14:23.911Z,5.78
2022-07-25T05:16:51.058Z,7.65
2022-07-25T05:19:18.159Z,6.97
2022-07-25T05:21:45.232Z,8.70
2022-07-25T05:24:12.350Z,10.20
2022-07-25T05:26:39.314Z,3.75
2022-07-25T05:29:06.281Z,6.03
2022-07-25T05:31:33.424Z,8.50
2022-07-25T05:34:00.547Z,4.70
2022-07-25T05:36:27.711Z,4.40
2022-07-25T05:38:54.760Z,4.63
2022-07-25T05:41:22.369Z,6.93
2022-07-25T05:43:49.576Z,9.25
2022-07-25T05:46:16.799Z,9.18
2022-07-25T05:48:44.274Z,5.38
2022-07-25T05:51:12.576Z,6.90
2022-07-25T05:53:39.721Z,7.32
2022-07-25T05:56:07.128Z,11.48
2022-07-25T05:58:34.187Z,8.95
2022-07-25T06:01:01.138Z,5.05
2022-07-25T06:03:28.152Z,5.57
2022-07-25T06:05:56.846Z,8.48
2022-07-25T06:08:23.999Z,7.85
2022-07-25T06:10:52.184Z,8.82
2022-07-25T06:13:20.909Z,7.90
2022-07-25T06:15:48.039Z,9.65
2022-07-25T06:18:15.290Z,10.77
2022-07-25T06:20:42.463Z,9.10
2022-07-25T06:23:09.868Z,7.05
2022-07-25T06:25:37.162Z,7.95
2022-07-25T06:28:04.580Z,6.25
2022-07-25T06:30:31.762Z,6.65
2022-07-25T06:32:58.739Z,8.43
2022-07-25T06:35:25.924Z,9.05
2022-07-25T06:37:52.970Z,9.82
2022-07-25T06:40:20.236Z,8.63
2022-07-25T06:42:48.076Z,6.88
2022-07-25T06:45:16.439Z,9.88
2022-07-25T06:47:44.703Z,7.93
2022-07-25T06:50:21.260Z,9.18
2022-07-25T06:52:48.746Z,8.80
2022-07-25T06:55:16.268Z,9.60
2022-07-25T06:57:43.651Z,7.72
2022-07-25T07:00:13.278Z,7.03
2022-07-25T07:02:58.695Z,13.65
2022-07-25T07:05:29.494Z,6.80
2022-07-25T07:07:57.432Z,5.45
2022-07-25T07:10:25.037Z,8.82
2022-07-25T07:13:12.656Z,4.07
2022-07-25T07:15:45.074Z,5.03
2022-07-25T07:18:12.024Z,7.82
2022-07-25T07:20:39.060Z,6.20
2022-07-25T07:23:06.089Z,7.53
2022-07-25T07:25:34.105Z,4.07
2022-07-25T07:28:01.282Z,4.70
2022-07-25T07:30:52.104Z,9.35
2022-07-25T07:33:15.454Z,8.55
2022-07-25T07:35:45.302Z,7.95
2022-07-25T07:38:12.414Z,9.77
2022-07-25T07:40:39.454Z,4.80
2022-07-25T07:43:06.459Z,6.80
2022-07-25T07:45:33.905Z,3.72
2022-07-25T07:48:00.810Z,7.57
2022-07-25T07:50:28.863Z,3.97
2022-07-25T07:52:56.747Z,9.75
2022-07-25T07:55:42.773Z,5.95
2022-07-25T07:58:17.857Z,6.28
2022-07-25T08:00:47.047Z,5.45
2022-07-25T08:03:19.294Z,6.70
2022-07-25T08:05:48.937Z,7.53
2022-07-25T08:08:16.444Z,8.45
2022-07-25T08:10:46.103Z,4.50
2022-07-25T08:13:19.101Z,5.18
2022-07-25T08:15:50.067Z,8.00
2022-07-25T08:18:18.283Z,6.75
2022-07-25T08:20:49.677Z,5.55
2022-07-25T08:23:18.135Z,6.47
2022-07-25T08:26:22.335Z,8.90
2022-07-25T08:28:59.868Z,5.70
2022-07-25T08:31:36.576Z,7.28
2022-07-25T08:34:04.208Z,11.20
2022-07-25T08:36:34.805Z,9.85
2022-07-25T08:39:02.052Z,6.40
2022-07-25T08:41:29.293Z,7.32
2022-07-25T08:43:56.470Z,8.35
2022-07-25T08:46:24.508Z,8.07
2022-07-25T08:48:52.410Z,4.85
2022-07-25T08:51:19.571Z,10.40
2022-07-25T08:53:48.543Z,6.15
2022-07-25T08:56:20.604Z,7.32
2022-07-25T08:58:49.602Z,8.68
2022-07-25T09:01:16.852Z,7.15
2022-07-25T09:03:44.328Z,9.77
2022-07-25T09:06:16.702Z,6.97
2022-07-25T09:08:59.636Z,7.68
2022-07-25T09:11:35.463Z,6.60
2022-07-25T09:14:07.449Z,7.10
2022-07-25T09:16:41.072Z,8.93
2022-07-25T09:19:16.561Z,7.72
2022-07-25T09:21:46.369Z,8.80
2022-07-25T09:24:17.485Z,5.78
2022-07-25T09:26:51.496Z,10.68
2022-07-25T09:29:31.966Z,9.20
2022-07-25T09:32:00.674Z,9.88
2022-07-25T09:34:41.699Z,9.25
2022-07-25T09:37:12.577Z,10.88
2022-07-25T09:39:51.348Z,8.50
2022-07-25T09:42:32.635Z,13.27
2022-07-25T09:45:14.864Z,7.20
2022-07-25T09:47:57.525Z,9.07
2022-07-25T09:50:28.201Z,10.45
2022-07-25T09:52:57.389Z,8.00
2022-07-25T09:55:25.033Z,8.35
2022-07-25T09:58:01.532Z,7.68
2022-07-25T10:00:32.638Z,8.05
2022-07-25T10:03:33.164Z,10.77
2022-07-25T10:06:20.420Z,9.23
2022-07-25T10:08:49.386Z,6.13
2022-07-25T10:11:25.711Z,10.15
2022-07-25T10:13:54.788Z,9.68
2022-07-25T10:16:27.247Z,7.43
2022-07-25T10:18:58.195Z,12.18
2022-07-25T10:21:28.278Z,6.00
2022-07-25T10:24:02.881Z,10.18
2022-07-25T10:26:30.903Z,8.18
2022-07-25T10:28:58.836Z,7.20
2022-07-25T10:31:39.655Z,11.15
2022-07-25T10:34:12.086Z,15.60
2022-07-25T10:36:52.939Z,10.15
2022-07-25T10:39:22.294Z,8.15
2022-07-25T10:41:59.222Z,9.70
2022-07-25T10:44:32.187Z,7.78
2022-07-25T10:47:26.949Z,14.48
2022-07-25T10:50:16.986Z,10.25
2022-07-25T10:53:01.720Z,7.63
2022-07-25T10:55:29.314Z,8.90
2022-07-25T10:58:20.273Z,5.82
2022-07-25T11:00:47.371Z,11.75
2022-07-25T11:03:18.444Z,6.60
2022-07-25T11:05:47.177Z,9.20
2022-07-25T11:08:22.575Z,9.85
2022-07-25T11:10:53.522Z,11.85
2022-07-25T11:13:26.745Z,7.28
2022-07-25T11:15:58.713Z,8.00
2022-07-25T11:18:40.777Z,7.60
2022-07-25T11:21:09.462Z,6.20
2022-07-25T11:23:37.013Z,8.50
2022-07-25T11:26:09.611Z,5.18
2022-07-25T11:28:45.938Z,6.15
2022-07-25T11:31:15.592Z,8.77
2022-07-25T11:33:46.774Z,6.40
2022-07-25T11:36:14.358Z,10.90
2022-07-25T11:38:42.624Z,6.28
2022-07-25T11:41:09.754Z,7.25
2022-07-25T11:43:36.699Z,7.55
2022-07-25T11:46:07.359Z,10.68
2022-07-25T11:48:39.272Z,14.48
2022-07-25T11:51:19.477Z,8.02
2022-07-25T11:53:50.509Z,13.40
2022-07-25T11:56:41.868Z,10.20
2022-07-25T11:59:10.696Z,10.10
2022-07-25T12:01:40.538Z,8.90
2022-07-25T12:04:14.321Z,13.73
2022-07-25T12:06:43.767Z,7.35
2022-07-25T12:09:22.324Z,14.07
2022-07-25T12:11:49.899Z,9.15
2022-07-25T12:14:16.965Z,8.38
2022-07-25T12:16:44.213Z,9.95
2022-07-25T12:19:21.152Z,26.55
2022-07-25T12:21:48.150Z,10.63
2022-07-25T12:24:15.234Z,4.45
2022-07-25T12:26:42.552Z,7.93
2022-07-25T12:29:09.993Z,9.68
2022-07-25T12:31:40.735Z,12.07
2022-07-25T12:34:07.769Z,8.13
2022-07-25T12:36:41.159Z,10.30
2022-07-25T12:39:08.656Z,9.23
2022-07-25T12:41:35.921Z,6.88
2022-07-25T12:44:04.265Z,4.88
2022-07-25T12:46:31.724Z,4.00
2022-07-25T12:48:58.771Z,5.13
2022-07-25T12:51:25.760Z,5.90
2022-07-25T12:53:52.748Z,4.05
2022-07-25T12:56:19.729Z,6.53
2022-07-25T12:58:46.831Z,8.60
2022-07-25T13:01:14.218Z,5.47
2022-07-25T13:03:41.377Z,6.38
2022-07-25T13:06:08.506Z,7.50
2022-07-25T13:08:37.785Z,8.77
2022-07-25T13:11:05.200Z,5.47
2022-07-25T13:13:32.245Z,5.03
2022-07-25T13:15:59.902Z,6.57
2022-07-25T13:18:27.415Z,4.32
2022-07-25T13:20:54.513Z,7.70
2022-07-25T13:23:21.666Z,7.20
2022-07-25T13:25:48.776Z,2.60
2022-07-25T13:28:15.793Z,3.10
2022-07-25T13:30:42.823Z,6.15
2022-07-25T13:33:10.691Z,7.57
2022-07-25T13:35:39.319Z,5.63
2022-07-25T13:38:11.290Z,5.97
2022-07-25T13:40:42.071Z,9.27
2022-07-25T13:43:14.574Z,3.47
2022-07-25T13:45:42.587Z,5.90
2022-07-25T13:48:29.117Z,4.93
2022-07-25T13:51:00.136Z,5.32
2022-07-25T13:53:30.139Z,4.50
2022-07-25T13:55:58.749Z,3.70
2022-07-25T13:58:27.200Z,7.35
2022-07-25T14:00:54.796Z,3.30
2022-07-25T14:03:22.093Z,3.42
2022-07-25T14:05:49.159Z,3.97
2022-07-25T14:08:17.194Z,5.50
2022-07-25T14:10:44.165Z,4.13
2022-07-25T14:13:13.047Z,5.88
2022-07-25T14:15:40.770Z,3.30
2022-07-25T14:18:07.962Z,3.08
2022-07-25T14:20:34.962Z,4.35
2022-07-25T14:23:01.994Z,3.78
2022-07-25T14:25:29.047Z,3.30
2022-07-25T14:27:56.068Z,6.00
2022-07-25T14:30:22.978Z,5.22
2022-07-25T14:32:50.295Z,10.20
2022-07-25T14:35:17.371Z,7.75
2022-07-25T14:37:44.431Z,3.17
2022-07-25T14:40:12.489Z,3.72
2022-07-25T14:42:41.880Z,4.22
2022-07-25T14:45:09.629Z,4.50
2022-07-25T14:47:36.767Z,5.57
2022-07-25T14:50:04.214Z,4.05
2022-07-25T14:52:31.323Z,5.68
2022-07-25T14:54:58.609Z,8.57
2022-07-25T14:57:26.171Z,7.03
2022-07-25T14:59:53.152Z,6.25
2022-07-25T15:02:20.140Z,3.83
2022-07-25T15:04:47.234Z,4.25
2022-07-25T15:07:14.317Z,3.40
2022-07-25T15:09:41.450Z,6.70
2022-07-25T15:12:12.174Z,14.63
2022-07-25T15:14:43.390Z,4.78
2022-07-25T15:17:10.365Z,4.20
2022-07-25T15:19:40.372Z,8.23
2022-07-25T15:22:07.493Z,3.60
2022-07-25T15:24:50.129Z,4.95
2022-07-25T15:27:21.500Z,3.22
2022-07-25T15:29:48.487Z,2.50
2022-07-25T15:32:15.513Z,5.47
2022-07-25T15:34:57.872Z,6.88
2022-07-25T15:37:25.096Z,2.58
2022-07-25T15:39:52.046Z,7.32
2022-07-25T15:42:18.962Z,2.75
2022-07-25T15:44:45.879Z,5.97
2022-07-25T15:47:12.976Z,3.28
2022-07-25T15:49:40.230Z,4.88
2022-07-25T15:52:10.308Z,2.28
2022-07-25T15:54:37.320Z,5.53
2022-07-25T15:57:05.620Z,3.30
2022-07-25T15:59:32.608Z,4.53
2022-07-25T16:02:00.571Z,3.10
2022-07-25T16:04:27.840Z,3.90
2022-07-25T16:06:54.903Z,3.50
2022-07-25T16:09:21.922Z,6.40
2022-07-25T16:11:48.824Z,5.63
2022-07-25T16:14:22.798Z,5.57
2022-07-25T16:16:49.930Z,7.07
2022-07-25T16:19:16.817Z,6.40
2022-07-25T16:21:44.064Z,3.30
2022-07-25T16:24:11.226Z,6.97
2022-07-25T16:26:38.249Z,4.15
2022-07-25T16:29:06.185Z,7.93
2022-07-25T16:31:33.294Z,7.43
2022-07-25T16:34:00.401Z,4.20
2022-07-25T16:36:34.389Z,6.88
2022-07-25T16:39:02.485Z,7.20
2022-07-25T16:41:29.491Z,6.85
2022-07-25T16:43:57.332Z,8.40
2022-07-25T16:46:28.362Z,5.50
2022-07-25T16:48:56.032Z,6.47
2022-07-25T16:51:23.114Z,5.63
2022-07-25T16:53:50.123Z,3.42
2022-07-25T16:56:17.352Z,4.28
2022-07-25T16:58:44.482Z,4.68
2022-07-25T17:01:11.535Z,5.28
2022-07-25T17:03:40.664Z,5.03
2022-07-25T17:06:09.338Z,7.13
2022-07-25T17:08:37.110Z,1.70
2022-07-25T17:11:05.885Z,4.60
2022-07-25T17:13:33.350Z,2.80
2022-07-25T17:16:00.486Z,4.75
2022-07-25T17:18:28.996Z,5.00
2022-07-25T17:20:56.152Z,3.10
2022-07-25T17:23:24.347Z,9.93
2022-07-25T17:25:54.194Z,3.15
2022-07-25T17:28:24.165Z,5.03
2022-07-25T17:30:52.619Z,7.47
2022-07-25T17:33:21.104Z,6.22
2022-07-25T17:35:48.207Z,4.35
2022-07-25T17:38:15.920Z,4.88
2022-07-25T17:40:42.966Z,9.93
2022-07-25T17:43:10.011Z,6.93
2022-07-25T17:45:37.363Z,4.68
2022-07-25T17:48:05.229Z,4.32
2022-07-25T17:50:32.211Z,4.35
2022-07-25T17:53:00.029Z,5.28
2022-07-25T17:55:28.896Z,6.35
2022-07-25T17:57:56.416Z,5.85
2022-07-25T18:00:25.183Z,5.55
2022-07-25T18:02:52.374Z,3.42
2022-07-25T18:05:20.705Z,6.63
2022-07-25T18:07:49.698Z,4.88
2022-07-25T18:10:18.024Z,6.00
2022-07-25T18:12:45.510Z,6.15
2022-07-25T18:15:14.916Z,6.18
2022-07-25T18:17:44.275Z,6.40
2022-07-25T18:20:15.690Z,5.78
2022-07-25T18:22:43.986Z,6.43
2022-07-25T18:25:16.604Z,4.28
2022-07-25T18:27:48.977Z,11.93
2022-07-25T18:30:17.012Z,5.70
2022-07-25T18:32:45.668Z,6.82
2022-07-25T18:35:13.590Z,4.57
2022-07-25T18:37:46.436Z,8.02
2022-07-25T18:40:14.525Z,9.43
2022-07-25T18:42:41.603Z,9.55
2022-07-25T18:45:09.689Z,8.77
2022-07-25T18:47:37.484Z,8.25
2022-07-25T18:50:10.715Z,7.07
2022-07-25T18:52:38.671Z,7.93
2022-07-25T18:55:08.900Z,7.70
2022-07-25T18:57:38.251Z,6.50
2022-07-25T19:00:08.946Z,6.38
2022-07-25T19:02:36.846Z,8.85
2022-07-25T19:05:05.536Z,9.57
2022-07-25T19:07:37.832Z,5.60
2022-07-25T19:10:08.248Z,8.88
2022-07-25T19:12:35.426Z,4.55
2022-07-25T19:15:08.042Z,8.15
2022-07-25T19:17:37.094Z,4.82
2022-07-25T19:20:05.830Z,4.32
2022-07-25T19:22:33.001Z,7.65
2022-07-25T19:25:05.497Z,5.93
2022-07-25T19:27:32.787Z,6.65
2022-07-25T19:30:07.946Z,4.90
2022-07-25T19:32:40.550Z,4.95
2022-07-25T19:35:09.355Z,7.10
2022-07-25T19:37:40.573Z,10.68
2022-07-25T19:40:18.387Z,8.50
2022-07-25T19:42:50.114Z,5.30
2022-07-25T19:45:17.109Z,6.22
2022-07-25T19:47:48.585Z,5.90
2022-07-25T19:50:20.018Z,9.77
2022-07-25T19:52:48.562Z,11.00
2022-07-25T19:55:16.387Z,5.22
2022-07-25T19:57:44.879Z,9.68
2022-07-25T20:00:12.663Z,5.18
2022-07-25T20:02:41.577Z,9.90
2022-07-25T20:05:13.727Z,8.82
2022-07-25T20:07:43.706Z,4.97
2022-07-25T20:10:11.205Z,6.47
2022-07-25T20:12:42.760Z,8.30
2022-07-25T20:15:13.833Z,5.22
2022-07-25T20:17:46.110Z,7.10
2022-07-25T20:20:13.393Z,7.78
2022-07-25T20:22:41.987Z,8.35
2022-07-25T20:25:12.996Z,6.22
2022-07-25T20:27:40.131Z,7.10
2022-07-25T20:30:09.989Z,8.77
2022-07-25T20:32:37.487Z,9.43
2022-07-25T20:35:05.640Z,11.43
2022-07-25T20:37:32.708Z,3.70
2022-07-25T20:40:00.108Z,9.25
2022-07-25T20:42:28.327Z,5.97
2022-07-25T20:44:56.794Z,7.32
2022-07-25T20:47:26.725Z,10.95
2022-07-25T20:49:53.803Z,8.00
2022-07-25T20:52:20.913Z,9.95
2022-07-25T20:54:47.910Z,9.00
2022-07-25T20:57:15.933Z,7.93
2022-07-25T20:59:42.844Z,6.68
2022-07-25T21:02:11.504Z,10.18
2022-07-25T21:04:38.555Z,9.63
2022-07-25T21:07:05.909Z,8.52
2022-07-25T21:09:34.664Z,11.38
2022-07-25T21:12:21.276Z,12.32
2022-07-25T21:14:48.426Z,14.98
2022-07-25T21:17:15.408Z,8.95
2022-07-25T21:19:42.554Z,10.57
2022-07-25T21:22:09.816Z,8.55
2022-07-25T21:24:37.111Z,13.82
2022-07-25T21:27:04.674Z,11.65
2022-07-25T21:29:31.785Z,11.98
2022-07-25T21:31:58.818Z,12.18
2022-07-25T21:34:25.960Z,12.90
2022-07-25T21:36:52.943Z,11.23
2022-07-25T21:39:19.938Z,12.93
2022-07-25T21:41:46.981Z,9.50
2022-07-25T21:44:22.364Z,10.60
2022-07-25T21:46:50.615Z,14.73
2022-07-25T21:49:41.894Z,11.27
2022-07-25T21:52:13.923Z,12.00
2022-07-25T21:54:42.953Z,11.10
2022-07-25T21:57:13.242Z,8.68
2022-07-25T21:59:45.438Z,10.93
2022-07-25T22:02:12.997Z,12.07
2022-07-25T22:04:40.565Z,13.20
2022-07-25T22:07:08.634Z,13.55
2022-07-25T22:09:36.004Z,15.70
2022-07-25T22:12:03.727Z,11.00
2022-07-25T22:14:30.717Z,11.18
2022-07-25T22:16:57.719Z,13.85
2022-07-25T22:19:24.776Z,14.55
2022-07-25T22:21:52.005Z,18.17
2022-07-25T22:24:19.325Z,14.77
2022-07-25T22:26:46.464Z,14.18
2022-07-25T22:29:13.452Z,12.48
2022-07-25T22:31:40.744Z,14.68
2022-07-25T22:34:08.223Z,15.45
2022-07-25T22:36:35.313Z,15.27
2022-07-25T22:39:02.314Z,12.88
2022-07-25T22:41:29.439Z,11.25
2022-07-25T22:43:59.618Z,16.10
2022-07-25T22:46:31.323Z,14.88
2022-07-25T22:48:59.402Z,18.17
2022-07-25T22:51:27.448Z,16.70
2022-07-25T22:53:55.350Z,15.13
2022-07-25T22:56:23.285Z,14.57
2022-07-25T22:58:50.448Z,14.07
2022-07-25T23:01:19.341Z,15.95
2022-07-25T23:03:49.787Z,13.73
2022-07-25T23:06:18.837Z,21.52
2022-07-25T23:08:46.754Z,18.85
2022-07-25T23:11:13.761Z,17.95
2022-07-25T23:13:40.850Z,12.98
2022-07-25T23:16:10.355Z,20.15
2022-07-25T23:18:38.414Z,20.42
2022-07-25T23:21:06.217Z,15.68
2022-07-25T23:23:36.113Z,19.98
2022-07-25T23:26:03.828Z,14.40
2022-07-25T23:28:30.950Z,18.88
2022-07-25T23:30:58.038Z,18.30
2022-07-25T23:33:31.631Z,21.38
2022-07-25T23:35:59.249Z,17.73
2022-07-25T23:38:26.348Z,22.13
2022-07-25T23:40:54.895Z,19.00
2022-07-25T23:43:56.947Z,23.42
2022-07-25T23:46:31.047Z,18.02
2022-07-25T23:48:59.298Z,16.27
2022-07-25T23:51:26.568Z,20.88
2022-07-25T23:53:53.781Z,19.17
2022-07-25T23:56:21.459Z,23.98
2022-07-25T23:58:50.287Z,22.25
